Enter the Airport ICAO Code

Search by Airport or City

Current Weather

SCIE | Carriel Sur International Airport

Concepción, Chile

Last Update 1 Minute Ago

Clear Sky

Temperature of 12 ºC

Light to Moderate Winds from SouthWest

Temperature

12 ºC

Dew Point Temperature

03 ºC

Relative Humidity

54.17 %

Wind Direction

SouthWest (210º, Ranging from 170º to 230º)

Wind Velocity

9 km/h (05 kt)

Gusts

None

Visibility

No Significant Reductions

Sea Level Pressure

1021 hPa (Hectopascals)

Layers of Clouds

None

METAR SCIE 121600Z 21005KT 170V230 CAVOK 12/03 Q1021

Weather Forecast

SCIE | Carriel Sur International Airport

Concepción, Chile

Forecast valid for the next 20 Hours

In the next 2 hours it is expected the begining of:

Partly Cloudy Sky

In 9 to 11 hours it is expected the begining of:

Light to Moderate Winds from South

Maximum Temperature

12 ºC in 2 Hours

Minimum Temperature

03 ºC in 19 Hours

TAF SCIE 121327Z 1212/1312 20004KT CAVOK TX12/1218Z TN03/1311Z BECMG 1215/1217 20010KT BECMG 1216/1218 FEW023 SCT050 BECMG 1301/1303 20006KT